createdAt,value
2023-01-02T00:00:53.054Z,12.55
2023-01-02T00:01:53.011Z,12.58
2023-01-02T00:02:53.069Z,12.56
2023-01-02T00:03:53.083Z,12.56
2023-01-02T00:04:52.951Z,12.56
2023-01-02T00:05:52.933Z,12.56
2023-01-02T00:06:52.947Z,12.56
2023-01-02T00:07:52.964Z,12.56
2023-01-02T00:08:52.890Z,12.58
2023-01-02T00:09:52.926Z,12.56
2023-01-02T00:10:53.228Z,12.56
2023-01-02T00:11:52.920Z,12.56
2023-01-02T00:12:52.903Z,12.56
2023-01-02T00:13:52.840Z,12.58
2023-01-02T00:14:52.841Z,12.61
2023-01-02T00:15:52.958Z,12.59
2023-01-02T00:16:52.848Z,12.59
2023-01-02T00:17:52.833Z,12.62
2023-01-02T00:18:52.831Z,12.61
2023-01-02T00:19:52.784Z,12.61
2023-01-02T00:20:52.737Z,12.61
2023-01-02T00:21:52.747Z,12.61
2023-01-02T00:22:52.738Z,12.61
2023-01-02T00:23:52.708Z,12.61
2023-01-02T00:24:52.715Z,12.61
2023-01-02T00:25:52.680Z,12.63
2023-01-02T00:26:52.666Z,12.66
2023-01-02T00:27:52.690Z,12.66
2023-01-02T00:28:52.631Z,12.66
2023-01-02T00:29:52.641Z,12.63
2023-01-02T00:30:52.677Z,12.67
2023-01-02T00:31:52.607Z,12.67
2023-01-02T00:32:52.608Z,12.69
2023-01-02T00:33:52.551Z,12.70
2023-01-02T00:34:52.576Z,12.69
2023-01-02T00:35:52.574Z,12.73
2023-01-02T00:36:52.526Z,12.71
2023-01-02T00:37:52.598Z,12.74
2023-01-02T00:38:52.483Z,12.76
2023-01-02T00:39:52.489Z,12.79
2023-01-02T00:40:52.479Z,12.80
2023-01-02T00:41:52.521Z,12.80
2023-01-02T00:42:52.457Z,12.81
2023-01-02T00:43:52.454Z,12.84
2023-01-02T00:44:52.398Z,12.87
2023-01-02T00:45:52.498Z,12.85
2023-01-02T00:46:52.443Z,12.87
2023-01-02T00:47:52.424Z,12.89
2023-01-02T00:48:52.384Z,12.87
2023-01-02T00:49:52.397Z,12.89
2023-01-02T00:50:52.328Z,12.89
2023-01-02T00:51:52.355Z,12.92
2023-01-02T00:52:52.381Z,12.92
2023-01-02T00:53:52.297Z,12.92
2023-01-02T00:54:52.305Z,12.92
2023-01-02T00:55:52.287Z,12.94
2023-01-02T00:56:52.373Z,12.94
2023-01-02T00:57:52.272Z,12.95
2023-01-02T00:58:52.234Z,12.95
2023-01-02T00:59:52.261Z,12.96
2023-01-02T01:00:52.285Z,12.96
2023-01-02T01:01:52.365Z,12.96
2023-01-02T01:02:52.305Z,12.99
2023-01-02T01:03:52.188Z,13.03
2023-01-02T01:04:52.181Z,13.04
2023-01-02T01:05:52.159Z,13.04
2023-01-02T01:06:52.138Z,13.04
2023-01-02T01:07:52.131Z,13.07
2023-01-02T01:08:52.120Z,13.06
2023-01-02T01:09:52.133Z,13.09
2023-01-02T01:10:52.101Z,13.09
2023-01-02T01:12:03.558Z,13.09
2023-01-02T01:12:56.674Z,13.12
2023-01-02T01:13:52.059Z,13.12
2023-01-02T01:14:52.029Z,13.13
2023-01-02T01:15:52.056Z,13.14
2023-01-02T01:16:51.977Z,13.14
2023-01-02T01:17:52.011Z,13.14
2023-01-02T01:18:51.976Z,13.14
2023-01-02T01:19:51.987Z,13.13
2023-01-02T01:20:51.947Z,13.13
2023-01-02T01:21:51.958Z,13.16
2023-01-02T01:22:51.948Z,13.17
2023-01-02T01:23:51.893Z,13.21
2023-01-02T01:24:51.932Z,13.21
2023-01-02T01:25:51.885Z,13.22
2023-01-02T01:26:51.912Z,13.22
2023-01-02T01:27:51.857Z,13.22
2023-01-02T01:28:51.878Z,13.22
2023-01-02T01:29:51.816Z,13.24
2023-01-02T01:30:51.793Z,13.22
2023-01-02T01:31:51.846Z,13.21
2023-01-02T01:32:51.792Z,13.22
2023-01-02T01:33:51.807Z,13.24
2023-01-02T01:34:51.764Z,13.25
2023-01-02T01:35:51.744Z,13.25
2023-01-02T01:36:51.739Z,13.28
2023-01-02T01:37:51.734Z,13.28
2023-01-02T01:38:51.687Z,13.31
2023-01-02T01:39:56.351Z,13.29
2023-01-02T01:40:52.699Z,13.29
2023-01-02T01:41:51.687Z,13.29
2023-01-02T01:42:53.930Z,13.29
2023-01-02T01:43:52.723Z,13.29
2023-01-02T01:44:51.621Z,13.29
2023-01-02T01:45:51.650Z,13.28
2023-01-02T01:46:51.618Z,13.29
2023-01-02T01:47:51.657Z,13.28
2023-01-02T01:48:51.589Z,13.28
2023-01-02T01:49:51.613Z,13.29
2023-01-02T01:50:51.535Z,13.28
2023-01-02T01:51:51.545Z,13.28
2023-01-02T01:52:51.565Z,13.29
2023-01-02T01:53:51.508Z,13.28
2023-01-02T01:54:51.527Z,13.28
2023-01-02T01:55:51.481Z,13.27
2023-01-02T01:56:51.450Z,13.27
2023-01-02T01:57:51.528Z,13.27
2023-01-02T01:58:51.447Z,13.28
2023-01-02T01:59:51.452Z,13.28
2023-01-02T02:00:51.485Z,13.28
2023-01-02T02:01:51.680Z,13.29
2023-01-02T02:02:51.536Z,13.28
2023-01-02T02:03:51.379Z,13.27
2023-01-02T02:04:51.386Z,13.27
2023-01-02T02:05:51.351Z,13.28
2023-01-02T02:06:51.339Z,13.28
2023-01-02T02:07:51.366Z,13.29
2023-01-02T02:08:51.373Z,13.31
2023-01-02T02:09:51.353Z,13.29
2023-01-02T02:10:51.290Z,13.31
2023-01-02T02:11:51.281Z,13.32
2023-01-02T02:12:51.258Z,13.31
2023-01-02T02:13:51.259Z,13.32
2023-01-02T02:14:51.245Z,13.32
2023-01-02T02:15:51.208Z,13.32
2023-01-02T02:16:51.357Z,13.32
2023-01-02T02:17:51.229Z,13.29
2023-01-02T02:18:51.214Z,13.28
2023-01-02T02:19:51.196Z,13.28
2023-01-02T02:20:51.185Z,13.27
2023-01-02T02:21:51.165Z,13.27
2023-01-02T02:22:51.106Z,13.27
2023-01-02T02:23:51.164Z,13.27
2023-01-02T02:24:51.148Z,13.29
2023-01-02T02:25:51.084Z,13.29
2023-01-02T02:26:51.065Z,13.31
2023-01-02T02:27:51.093Z,13.31
2023-01-02T02:28:51.034Z,13.35
2023-01-02T02:29:51.046Z,13.31
2023-01-02T02:30:51.005Z,13.31
2023-01-02T02:31:51.075Z,13.35
2023-01-02T02:32:51.005Z,13.35
2023-01-02T02:33:51.003Z,13.32
2023-01-02T02:34:50.974Z,13.31
2023-01-02T02:35:50.990Z,13.32
2023-01-02T02:36:50.969Z,13.35
2023-01-02T02:37:50.968Z,13.35
2023-01-02T02:38:50.909Z,13.36
2023-01-02T02:39:50.912Z,13.36
2023-01-02T02:40:50.887Z,13.38
2023-01-02T02:41:50.884Z,13.41
2023-01-02T02:42:50.882Z,13.39
2023-01-02T02:43:50.876Z,13.41
2023-01-02T02:44:50.883Z,13.39
2023-01-02T02:45:50.875Z,13.39
2023-01-02T02:46:50.816Z,13.38
2023-01-02T02:47:50.810Z,13.36
2023-01-02T02:48:50.839Z,13.38
2023-01-02T02:49:50.768Z,13.36
2023-01-02T02:50:50.778Z,13.38
2023-01-02T02:51:50.768Z,13.35
2023-01-02T02:52:50.760Z,13.35
2023-01-02T02:53:50.713Z,13.35
2023-01-02T02:54:50.741Z,13.35
2023-01-02T02:55:50.684Z,13.31
2023-01-02T02:56:50.713Z,13.29
2023-01-02T02:57:50.722Z,13.29
2023-01-02T02:58:50.699Z,13.28
2023-01-02T02:59:50.627Z,13.27
2023-01-02T03:00:50.700Z,13.29
2023-01-02T03:01:50.811Z,13.32
2023-01-02T03:02:50.746Z,13.35
2023-01-02T03:03:50.605Z,13.35
2023-01-02T03:04:50.574Z,13.35
2023-01-02T03:05:50.551Z,13.35
2023-01-02T03:06:50.575Z,13.35
2023-01-02T03:07:50.540Z,13.35
2023-01-02T03:08:50.528Z,13.32
2023-01-02T03:09:50.513Z,13.32
2023-01-02T03:10:50.492Z,13.32
2023-01-02T03:11:50.480Z,13.31
2023-01-02T03:12:50.471Z,13.31
2023-01-02T03:13:50.471Z,13.35
2023-01-02T03:14:50.511Z,13.32
2023-01-02T03:15:50.458Z,13.32
2023-01-02T03:16:50.529Z,13.32
2023-01-02T03:17:50.410Z,13.31
2023-01-02T03:18:50.420Z,13.35
2023-01-02T03:19:50.407Z,13.32
2023-01-02T03:20:50.395Z,13.35
2023-01-02T03:21:50.339Z,13.32
2023-01-02T03:22:50.368Z,13.31
2023-01-02T03:23:50.311Z,13.31
2023-01-02T03:24:50.383Z,13.29
2023-01-02T03:25:50.329Z,13.29
2023-01-02T03:26:50.336Z,13.29
2023-01-02T03:27:50.331Z,13.28
2023-01-02T03:28:50.292Z,13.29
2023-01-02T03:29:50.363Z,13.29
2023-01-02T03:30:50.343Z,13.29
2023-01-02T03:31:50.251Z,13.29
2023-01-02T03:32:50.239Z,13.28
2023-01-02T03:33:50.227Z,13.29
2023-01-02T03:34:50.200Z,13.27
2023-01-02T03:35:50.160Z,13.28
2023-01-02T03:36:50.167Z,13.28
2023-01-02T03:37:50.141Z,13.25
2023-01-02T03:38:50.175Z,13.25
2023-01-02T03:39:50.157Z,13.25
2023-01-02T03:40:50.130Z,13.25
2023-01-02T03:41:50.104Z,13.24
2023-01-02T03:42:50.134Z,13.25
2023-01-02T03:43:54.843Z,13.24
2023-01-02T03:44:51.073Z,13.22
2023-01-02T03:45:50.110Z,13.22
2023-01-02T03:46:50.061Z,13.21
2023-01-02T03:47:50.036Z,13.22
2023-01-02T03:48:50.029Z,13.22
2023-01-02T03:49:49.987Z,13.25
2023-01-02T03:50:50.005Z,13.24
2023-01-02T03:51:49.949Z,13.28
2023-01-02T03:52:49.988Z,13.27
2023-01-02T03:53:49.934Z,13.27
2023-01-02T03:54:49.946Z,13.27
2023-01-02T03:55:49.919Z,13.25
2023-01-02T03:56:49.916Z,13.25
2023-01-02T03:57:56.840Z,13.27
2023-01-02T03:58:50.908Z,13.29
2023-01-02T03:59:49.847Z,13.29
2023-01-02T04:00:49.885Z,13.31
2023-01-02T04:01:49.944Z,13.29
2023-01-02T04:02:49.934Z,13.31
2023-01-02T04:03:49.791Z,13.32
2023-01-02T04:04:51.134Z,13.32
2023-01-02T04:05:49.810Z,13.35
2023-01-02T04:06:49.805Z,13.35
2023-01-02T04:07:49.773Z,13.35
2023-01-02T04:08:50.716Z,13.32
2023-01-02T04:09:49.734Z,13.32
2023-01-02T04:10:54.536Z,13.35
2023-01-02T04:11:50.710Z,13.32
2023-01-02T04:12:49.735Z,13.32
2023-01-02T04:13:49.692Z,13.29
2023-01-02T04:14:49.723Z,13.31
2023-01-02T04:15:49.697Z,13.31
2023-01-02T04:16:49.639Z,13.28
2023-01-02T04:17:49.635Z,13.27
2023-01-02T04:18:49.633Z,13.24
2023-01-02T04:19:49.605Z,13.22
2023-01-02T04:20:49.583Z,13.21
2023-01-02T04:21:49.593Z,13.19
2023-01-02T04:22:49.565Z,13.19
2023-01-02T04:23:49.563Z,13.14
2023-01-02T04:24:49.538Z,13.14
2023-01-02T04:25:49.528Z,13.14
2023-01-02T04:26:49.560Z,13.12
2023-01-02T04:27:49.487Z,13.12
2023-01-02T04:28:49.522Z,13.12
2023-01-02T04:29:49.469Z,13.10
2023-01-02T04:30:49.513Z,13.12
2023-01-02T04:31:49.456Z,13.10
2023-01-02T04:32:49.428Z,13.09
2023-01-02T04:33:49.549Z,13.07
2023-01-02T04:34:49.405Z,13.09
2023-01-02T04:35:49.389Z,13.09
2023-01-02T04:36:49.400Z,13.07
2023-01-02T04:37:49.421Z,13.07
2023-01-02T04:38:49.381Z,13.07
2023-01-02T04:39:49.320Z,13.07
2023-01-02T04:40:49.556Z,13.07
2023-01-02T04:41:49.299Z,13.07
2023-01-02T04:42:49.294Z,13.07
2023-01-02T04:43:49.292Z,13.07
2023-01-02T04:44:49.290Z,13.06
2023-01-02T04:45:49.287Z,13.04
2023-01-02T04:46:49.251Z,13.06
2023-01-02T04:47:49.286Z,13.03
2023-01-02T04:48:49.263Z,13.03
2023-01-02T04:49:49.212Z,13.03
2023-01-02T04:50:49.233Z,13.04
2023-01-02T04:51:49.163Z,13.06
2023-01-02T04:52:49.187Z,13.07
2023-01-02T04:53:49.223Z,13.06
2023-01-02T04:54:49.188Z,13.07
2023-01-02T04:55:49.121Z,13.06
2023-01-02T04:56:49.149Z,13.06
2023-01-02T04:57:49.137Z,13.06
2023-01-02T04:58:49.132Z,13.04
2023-01-02T04:59:49.094Z,13.04
2023-01-02T05:00:49.072Z,13.03
2023-01-02T05:01:49.151Z,13.01
2023-01-02T05:02:49.039Z,13.01
2023-01-02T05:03:49.057Z,12.99
2023-01-02T05:04:49.048Z,13.01
2023-01-02T05:05:49.043Z,13.01
2023-01-02T05:06:48.980Z,12.99
2023-01-02T05:07:48.972Z,13.01
2023-01-02T05:08:48.984Z,13.03
2023-01-02T05:09:48.940Z,13.03
2023-01-02T05:10:48.980Z,13.01
2023-01-02T05:11:48.922Z,13.01
2023-01-02T05:12:48.927Z,13.03
2023-01-02T05:13:48.877Z,13.03
2023-01-02T05:14:48.920Z,13.03
2023-01-02T05:15:48.995Z,13.04
2023-01-02T05:16:48.881Z,13.04
2023-01-02T05:17:48.829Z,13.06
2023-01-02T05:18:48.846Z,13.06
2023-01-02T05:19:48.826Z,13.09
2023-01-02T05:20:48.837Z,13.07
2023-01-02T05:21:48.789Z,13.07
2023-01-02T05:22:48.823Z,13.09
2023-01-02T05:23:48.752Z,13.09
2023-01-02T05:24:48.783Z,13.07
2023-01-02T05:25:48.762Z,13.09
2023-01-02T05:26:48.745Z,13.09
2023-01-02T05:27:48.721Z,13.09
2023-01-02T05:28:48.716Z,13.12
2023-01-02T05:29:48.670Z,13.10
2023-01-02T05:30:48.691Z,13.10
2023-01-02T05:31:48.659Z,13.10
2023-01-02T05:32:48.665Z,13.10
2023-01-02T05:33:49.571Z,13.09
2023-01-02T05:34:48.619Z,13.10
2023-01-02T05:35:48.629Z,13.14
2023-01-02T05:36:48.612Z,13.19
2023-01-02T05:37:48.662Z,13.21
2023-01-02T05:38:48.570Z,13.27
2023-01-02T05:39:48.565Z,13.29
2023-01-02T05:40:48.564Z,13.35
2023-01-02T05:41:48.583Z,13.36
2023-01-02T05:42:48.614Z,13.38
2023-01-02T05:43:48.567Z,13.41
2023-01-02T05:44:48.497Z,13.41
2023-01-02T05:45:48.475Z,13.41
2023-01-02T05:46:48.606Z,13.41
2023-01-02T05:47:48.477Z,13.43
2023-01-02T05:48:48.454Z,13.46
2023-01-02T05:49:48.407Z,13.47
2023-01-02T05:50:48.441Z,13.46
2023-01-02T05:51:48.429Z,13.46
2023-01-02T05:52:48.378Z,13.46
2023-01-02T05:53:48.350Z,13.46
2023-01-02T05:54:48.388Z,13.47
2023-01-02T05:55:48.375Z,13.48
2023-01-02T05:56:48.334Z,13.46
2023-01-02T05:57:48.306Z,13.44
2023-01-02T05:58:48.412Z,13.44
2023-01-02T05:59:48.294Z,13.47
2023-01-02T06:00:48.328Z,13.48
2023-01-02T06:01:48.382Z,13.48
2023-01-02T06:02:48.890Z,13.48
2023-01-02T06:03:48.313Z,13.50
2023-01-02T06:04:48.275Z,13.51
2023-01-02T06:05:48.240Z,13.53
2023-01-02T06:06:48.208Z,13.55
2023-01-02T06:07:48.180Z,13.59
2023-01-02T06:08:48.248Z,13.59
2023-01-02T06:09:48.172Z,13.57
2023-01-02T06:10:48.190Z,13.59
2023-01-02T06:11:48.156Z,13.62
2023-01-02T06:12:48.135Z,13.63
2023-01-02T06:13:48.103Z,13.63
2023-01-02T06:14:48.186Z,13.62
2023-01-02T06:15:48.160Z,13.61
2023-01-02T06:16:48.134Z,13.57
2023-01-02T06:17:48.086Z,13.57
2023-01-02T06:18:48.093Z,13.57
2023-01-02T06:19:53.722Z,13.57
2023-01-02T06:20:49.109Z,13.59
2023-01-02T06:21:48.131Z,13.54
2023-01-02T06:22:48.042Z,13.53
2023-01-02T06:23:48.074Z,13.51
2023-01-02T06:24:48.061Z,13.51
2023-01-02T06:25:48.017Z,13.51
2023-01-02T06:26:48.042Z,13.48
2023-01-02T06:27:47.923Z,13.50
2023-01-02T06:28:48.000Z,13.48
2023-01-02T06:29:47.884Z,13.48
2023-01-02T06:30:47.947Z,13.50
2023-01-02T06:31:51.646Z,13.51
2023-01-02T06:32:47.899Z,13.50
2023-01-02T06:33:47.951Z,13.51
2023-01-02T06:34:47.927Z,13.53
2023-01-02T06:35:47.900Z,13.51
2023-01-02T06:36:47.941Z,13.51
2023-01-02T06:37:47.853Z,13.48
2023-01-02T06:38:48.203Z,13.50
2023-01-02T06:39:47.902Z,13.50
2023-01-02T06:40:47.793Z,13.50
2023-01-02T06:41:47.766Z,13.48
2023-01-02T06:42:47.757Z,13.47
2023-01-02T06:43:47.740Z,13.46
2023-01-02T06:44:47.732Z,13.46
2023-01-02T06:45:47.724Z,13.46
2023-01-02T06:46:47.740Z,13.44
2023-01-02T06:47:47.652Z,13.43
2023-01-02T06:48:47.676Z,13.41
2023-01-02T06:49:47.657Z,13.43
2023-01-02T06:50:47.692Z,13.39
2023-01-02T06:51:47.602Z,13.39
2023-01-02T06:52:47.620Z,13.39
2023-01-02T06:53:47.600Z,13.39
2023-01-02T06:54:47.590Z,13.38
2023-01-02T06:55:47.579Z,13.36
2023-01-02T06:56:47.612Z,13.36
2023-01-02T06:57:47.532Z,13.38
2023-01-02T06:58:47.532Z,13.36
2023-01-02T06:59:47.521Z,13.35
2023-01-02T07:00:47.555Z,13.32
2023-01-02T07:01:47.660Z,13.29
2023-01-02T07:02:47.602Z,13.31
2023-01-02T07:03:47.513Z,13.31
2023-01-02T07:04:47.479Z,13.29
2023-01-02T07:05:47.466Z,13.31
2023-01-02T07:06:47.460Z,13.31
2023-01-02T07:07:47.473Z,13.31
2023-01-02T07:08:48.373Z,13.31
2023-01-02T07:09:47.418Z,13.31
2023-01-02T07:10:52.646Z,13.28
2023-01-02T07:11:48.396Z,13.28
2023-01-02T07:12:47.350Z,13.27
2023-01-02T07:13:47.367Z,13.24
2023-01-02T07:15:46.805Z,13.21
2023-01-02T07:16:46.825Z,13.19
2023-01-02T07:17:46.811Z,13.17
2023-01-02T07:18:46.811Z,13.16
2023-01-02T07:19:53.077Z,13.14
2023-01-02T07:20:47.743Z,13.12
2023-01-02T07:21:46.725Z,13.07
2023-01-02T07:22:46.745Z,13.04
2023-01-02T07:23:46.743Z,13.03
2023-01-02T07:24:46.731Z,12.98
2023-01-02T07:25:46.676Z,12.95
2023-01-02T07:26:46.684Z,12.89
2023-01-02T07:27:46.664Z,12.91
2023-01-02T07:28:46.658Z,12.87
2023-01-02T07:29:46.715Z,12.84
2023-01-02T07:30:46.598Z,12.80
2023-01-02T07:31:46.697Z,12.76
2023-01-02T07:32:46.610Z,12.73
2023-01-02T07:33:46.614Z,12.69
2023-01-02T07:34:46.551Z,12.66
2023-01-02T07:35:46.562Z,12.63
2023-01-02T07:36:46.613Z,12.59
2023-01-02T07:37:46.570Z,12.56
2023-01-02T07:38:46.533Z,12.52
2023-01-02T07:39:46.492Z,12.49
2023-01-02T07:40:46.464Z,12.48
2023-01-02T07:41:46.490Z,12.44
2023-01-02T07:42:46.477Z,12.43
2023-01-02T07:43:46.459Z,12.41
2023-01-02T07:44:46.435Z,12.40
2023-01-02T07:45:50.101Z,12.40
2023-01-02T07:46:46.445Z,12.38
2023-01-02T07:47:46.440Z,12.40
2023-01-02T07:48:46.353Z,12.40
2023-01-02T07:49:46.386Z,12.40
2023-01-02T07:50:46.335Z,12.38
2023-01-02T07:51:46.364Z,12.37
2023-01-02T07:52:46.341Z,12.36
2023-01-02T07:53:46.327Z,12.37
2023-01-02T07:54:46.359Z,12.36
2023-01-02T07:55:46.325Z,12.36
2023-01-02T07:56:46.271Z,12.31
2023-01-02T07:57:46.313Z,12.30
2023-01-02T07:58:46.259Z,12.29
2023-01-02T07:59:46.277Z,12.26
2023-01-02T08:00:46.248Z,12.26
2023-01-02T08:01:46.419Z,12.23
2023-01-02T08:02:46.229Z,12.22
2023-01-02T08:03:46.243Z,12.21
2023-01-02T08:04:46.173Z,12.21
2023-01-02T08:05:46.176Z,12.21
2023-01-02T08:06:46.171Z,12.19
2023-01-02T08:07:46.159Z,12.18
2023-01-02T08:08:46.095Z,12.15
2023-01-02T08:09:46.120Z,12.13
2023-01-02T08:10:46.088Z,12.12
2023-01-02T08:11:46.148Z,12.07
2023-01-02T08:12:46.052Z,12.05
2023-01-02T08:13:46.095Z,12.04
2023-01-02T08:14:46.043Z,12.04
2023-01-02T08:15:46.046Z,12.01
2023-01-02T08:16:46.050Z,12.03
2023-01-02T08:17:45.983Z,12.00
2023-01-02T08:18:45.979Z,12.00
2023-01-02T08:19:45.987Z,11.98
2023-01-02T08:20:46.246Z,11.96
2023-01-02T08:21:46.729Z,11.94
2023-01-02T08:22:46.015Z,11.94
2023-01-02T08:23:46.269Z,11.94
2023-01-02T08:24:46.121Z,11.94
2023-01-02T08:25:45.906Z,11.93
2023-01-02T08:26:46.058Z,11.93
2023-01-02T08:27:45.846Z,11.93
2023-01-02T08:28:45.902Z,11.93
2023-01-02T08:29:45.835Z,11.93
2023-01-02T08:30:45.891Z,11.93
2023-01-02T08:31:45.803Z,11.88
2023-01-02T08:32:45.809Z,11.87
2023-01-02T08:33:45.857Z,11.87
2023-01-02T08:34:45.816Z,11.87
2023-01-02T08:35:45.766Z,11.87
2023-01-02T08:36:45.771Z,11.85
2023-01-02T08:37:50.457Z,11.85
2023-01-02T08:38:46.747Z,11.85
2023-01-02T08:39:45.711Z,11.85
2023-01-02T08:40:45.697Z,11.88
2023-01-02T08:41:45.703Z,11.87
2023-01-02T08:42:45.715Z,11.88
2023-01-02T08:43:45.677Z,11.88
2023-01-02T08:44:45.698Z,11.90
2023-01-02T08:45:45.721Z,11.90
2023-01-02T08:46:45.670Z,11.90
2023-01-02T08:47:45.584Z,11.90
2023-01-02T08:48:45.632Z,11.90
2023-01-02T08:49:45.592Z,11.90
2023-01-02T08:50:45.623Z,11.93
2023-01-02T08:51:45.552Z,11.94
2023-01-02T08:52:45.562Z,11.94
2023-01-02T08:53:45.527Z,11.94
2023-01-02T08:54:45.531Z,11.97
2023-01-02T08:55:45.514Z,11.96
2023-01-02T08:56:45.484Z,11.94
2023-01-02T08:57:45.451Z,11.94
2023-01-02T08:58:52.057Z,11.94
2023-01-02T08:59:46.435Z,11.96
2023-01-02T09:00:45.424Z,11.98
2023-01-02T09:01:45.610Z,12.00
2023-01-02T09:02:45.553Z,11.98
2023-01-02T09:03:45.429Z,12.00
2023-01-02T09:04:45.374Z,12.01
2023-01-02T09:05:45.413Z,12.01
2023-01-02T09:06:45.415Z,12.01
2023-01-02T09:07:45.323Z,12.00
2023-01-02T09:08:45.329Z,12.01
2023-01-02T09:09:45.320Z,12.01
2023-01-02T09:10:45.349Z,12.03
2023-01-02T09:11:45.282Z,12.03
2023-01-02T09:12:45.267Z,12.04
2023-01-02T09:13:45.245Z,12.03
2023-01-02T09:14:45.235Z,12.04
2023-01-02T09:15:45.230Z,12.04
2023-01-02T09:16:45.274Z,12.04
2023-01-02T09:17:45.224Z,12.03
2023-01-02T09:18:45.202Z,12.01
2023-01-02T09:19:45.196Z,12.01
2023-01-02T09:20:45.161Z,12.03
2023-01-02T09:21:45.234Z,12.04
2023-01-02T09:22:45.144Z,12.03
2023-01-02T09:23:45.169Z,11.98
2023-01-02T09:24:45.151Z,12.00
2023-01-02T09:25:45.109Z,12.01
2023-01-02T09:26:45.077Z,12.00
2023-01-02T09:27:45.071Z,12.00
2023-01-02T09:28:45.113Z,11.98
2023-01-02T09:29:45.053Z,12.00
2023-01-02T09:30:45.050Z,12.03
2023-01-02T09:31:45.075Z,12.01
2023-01-02T09:32:45.001Z,12.03
2023-01-02T09:33:45.021Z,12.03
2023-01-02T09:34:45.017Z,12.03
2023-01-02T09:35:44.967Z,12.05
2023-01-02T09:36:44.950Z,12.03
2023-01-02T09:37:44.925Z,12.04
2023-01-02T09:38:44.960Z,12.04
2023-01-02T09:39:44.916Z,12.05
2023-01-02T09:40:44.921Z,12.05
2023-01-02T09:41:44.878Z,12.03
2023-01-02T09:42:44.903Z,12.04
2023-01-02T09:43:44.848Z,12.03
2023-01-02T09:44:44.875Z,12.00
2023-01-02T09:45:44.825Z,12.00
2023-01-02T09:46:44.836Z,11.98
2023-01-02T09:47:44.825Z,11.93
2023-01-02T09:48:44.816Z,11.88
2023-01-02T09:49:44.853Z,11.81
2023-01-02T09:50:44.757Z,11.77
2023-01-02T09:51:44.765Z,11.74
2023-01-02T09:52:44.738Z,11.70
2023-01-02T09:53:44.763Z,11.66
2023-01-02T09:54:44.732Z,11.62
2023-01-02T09:55:44.689Z,11.59
2023-01-02T09:56:44.711Z,11.53
2023-01-02T09:57:44.657Z,11.49
2023-01-02T09:58:44.693Z,11.49
2023-01-02T09:59:44.670Z,11.46
2023-01-02T10:00:44.640Z,11.44
2023-01-02T10:01:44.655Z,11.42
2023-01-02T10:02:44.661Z,11.44
2023-01-02T10:03:44.693Z,11.45
2023-01-02T10:04:44.627Z,11.45
2023-01-02T10:05:44.624Z,11.46
2023-01-02T10:06:44.594Z,11.49
2023-01-02T10:07:44.553Z,11.46
2023-01-02T10:08:44.562Z,11.42
2023-01-02T10:09:44.543Z,11.45
2023-01-02T10:10:44.568Z,11.42
2023-01-02T10:11:44.540Z,11.44
2023-01-02T10:12:44.464Z,11.45
2023-01-02T10:14:17.575Z,11.46
2023-01-02T10:14:45.517Z,11.45
2023-01-02T10:15:44.510Z,11.48
2023-01-02T10:16:44.452Z,11.48
2023-01-02T10:17:44.435Z,11.48
2023-01-02T10:18:44.414Z,11.45
2023-01-02T10:19:44.396Z,11.45
2023-01-02T10:20:44.420Z,11.44
2023-01-02T10:21:44.401Z,11.45
2023-01-02T10:22:44.370Z,11.46
2023-01-02T10:23:44.367Z,11.45
2023-01-02T10:24:44.372Z,11.49
2023-01-02T10:25:49.442Z,11.51
2023-01-02T10:26:45.325Z,11.53
2023-01-02T10:27:44.293Z,11.53
2023-01-02T10:28:44.275Z,11.51
2023-01-02T10:29:44.268Z,11.51
2023-01-02T10:30:44.264Z,11.54
2023-01-02T10:31:44.273Z,11.57
2023-01-02T10:32:44.203Z,11.57
2023-01-02T10:33:44.184Z,11.60
2023-01-02T10:34:44.201Z,11.62
2023-01-02T10:35:44.170Z,11.62
2023-01-02T10:36:44.204Z,11.62
2023-01-02T10:37:44.130Z,11.63
2023-01-02T10:38:44.132Z,11.63
2023-01-02T10:39:44.135Z,11.60
2023-01-02T10:40:44.145Z,11.62
2023-01-02T10:41:44.124Z,11.62
2023-01-02T10:42:44.122Z,11.59
2023-01-02T10:43:44.081Z,11.62
2023-01-02T10:44:44.091Z,11.62
2023-01-02T10:45:44.052Z,11.60
2023-01-02T10:46:44.125Z,11.62
2023-01-02T10:47:44.038Z,11.60
2023-01-02T10:48:50.085Z,11.62
2023-01-02T10:49:45.007Z,11.63
2023-01-02T10:50:43.972Z,11.63
2023-01-02T10:51:43.959Z,11.64
2023-01-02T10:52:43.977Z,11.66
2023-01-02T10:53:43.950Z,11.66
2023-01-02T10:54:48.359Z,11.66
2023-01-02T10:55:44.930Z,11.64
2023-01-02T10:56:43.936Z,11.63
2023-01-02T10:57:43.936Z,11.64
2023-01-02T10:58:43.870Z,11.66
2023-01-02T10:59:43.841Z,11.66
2023-01-02T11:00:43.934Z,11.67
2023-01-02T11:01:43.928Z,11.70
2023-01-02T11:02:43.918Z,11.67
2023-01-02T11:03:43.836Z,11.66
2023-01-02T11:04:43.819Z,11.66
2023-01-02T11:05:43.786Z,11.64
2023-01-02T11:06:43.814Z,11.64
2023-01-02T11:07:43.776Z,11.66
2023-01-02T11:08:43.739Z,11.63
2023-01-02T11:09:43.743Z,11.60
2023-01-02T11:10:43.762Z,11.56
2023-01-02T11:11:43.705Z,11.49
2023-01-02T11:12:43.699Z,11.46
2023-01-02T11:13:46.497Z,11.49
2023-01-02T11:14:44.709Z,11.49
2023-01-02T11:15:43.675Z,11.51
2023-01-02T11:16:43.693Z,11.49
2023-01-02T11:17:43.635Z,11.49
2023-01-02T11:18:43.659Z,11.49
2023-01-02T11:19:43.636Z,11.54
2023-01-02T11:20:43.577Z,11.53
2023-01-02T11:21:43.588Z,11.54
2023-01-02T11:22:43.584Z,11.56
2023-01-02T11:23:43.553Z,11.54
2023-01-02T11:24:43.574Z,11.51
2023-01-02T11:25:43.526Z,11.45
2023-01-02T11:26:43.552Z,11.46
2023-01-02T11:27:43.491Z,11.48
2023-01-02T11:28:43.531Z,11.48
2023-01-02T11:29:43.452Z,11.48
2023-01-02T11:30:43.469Z,11.49
2023-01-02T11:31:43.548Z,11.51
2023-01-02T11:32:43.434Z,11.53
2023-01-02T11:33:43.413Z,11.54
2023-01-02T11:34:43.395Z,11.54
2023-01-02T11:35:43.401Z,11.54
2023-01-02T11:36:43.398Z,11.54
2023-01-02T11:37:43.410Z,11.53
2023-01-02T11:38:43.396Z,11.45
2023-01-02T11:39:43.314Z,11.38
2023-01-02T11:40:43.315Z,11.35
2023-01-02T11:41:43.312Z,11.30
2023-01-02T11:42:43.325Z,11.33
2023-01-02T11:43:43.284Z,11.36
2023-01-02T11:44:43.264Z,11.39
2023-01-02T11:45:43.313Z,11.44
2023-01-02T11:46:43.234Z,11.45
2023-01-02T11:47:43.219Z,11.46
2023-01-02T11:48:43.243Z,11.44
2023-01-02T11:49:43.181Z,11.41
2023-01-02T11:50:43.229Z,11.41
2023-01-02T11:51:43.209Z,11.44
2023-01-02T11:52:43.180Z,11.44
2023-01-02T11:53:43.150Z,11.48
2023-01-02T11:54:43.157Z,11.49
2023-01-02T11:55:43.138Z,11.53
2023-01-02T11:56:43.106Z,11.54
2023-01-02T11:57:43.143Z,11.54
2023-01-02T11:58:43.123Z,11.53
2023-01-02T11:59:43.100Z,11.46
2023-01-02T12:00:43.096Z,11.49
2023-01-02T12:01:43.220Z,11.49
2023-01-02T12:02:43.055Z,11.49
2023-01-02T12:03:43.113Z,11.49
2023-01-02T12:04:43.049Z,11.48
2023-01-02T12:05:42.995Z,11.49
2023-01-02T12:06:43.006Z,11.48
2023-01-02T12:07:43.013Z,11.48
2023-01-02T12:08:50.649Z,11.53
2023-01-02T12:09:43.929Z,11.56
2023-01-02T12:10:42.960Z,11.59
2023-01-02T12:11:42.917Z,11.59
2023-01-02T12:12:42.910Z,11.62
2023-01-02T12:13:42.872Z,11.64
2023-01-02T12:14:42.917Z,11.67
2023-01-02T12:15:42.897Z,11.69
2023-01-02T12:16:42.924Z,11.69
2023-01-02T12:17:42.829Z,11.70
2023-01-02T12:18:42.857Z,11.72
2023-01-02T12:19:42.789Z,11.70
2023-01-02T12:20:42.847Z,11.66
2023-01-02T12:21:42.782Z,11.66
2023-01-02T12:22:42.768Z,11.66
2023-01-02T12:23:42.764Z,11.64
2023-01-02T12:24:42.736Z,11.64
2023-01-02T12:25:42.720Z,11.66
2023-01-02T12:26:42.725Z,11.64
2023-01-02T12:27:42.686Z,11.64
2023-01-02T12:28:42.678Z,11.64
2023-01-02T12:29:48.084Z,11.66
2023-01-02T12:30:43.683Z,11.62
2023-01-02T12:31:42.655Z,11.60
2023-01-02T12:32:42.637Z,11.56
2023-01-02T12:33:42.643Z,11.56
2023-01-02T12:34:42.597Z,11.53
2023-01-02T12:35:42.604Z,11.51
2023-01-02T12:36:42.636Z,11.51
2023-01-02T12:37:42.560Z,11.53
2023-01-02T12:38:42.587Z,11.56
2023-01-02T12:39:42.576Z,11.54
2023-01-02T12:40:42.506Z,11.56
2023-01-02T12:42:00.511Z,11.56
2023-01-02T12:42:43.552Z,11.59
2023-01-02T12:43:42.509Z,11.60
2023-01-02T12:44:42.460Z,11.62
2023-01-02T12:45:42.527Z,11.60
2023-01-02T12:46:42.426Z,11.59
2023-01-02T12:47:42.438Z,11.62
2023-01-02T12:48:42.416Z,11.63
2023-01-02T12:49:42.406Z,11.63
2023-01-02T12:50:48.439Z,11.63
2023-01-02T12:51:43.396Z,11.62
2023-01-02T12:52:42.370Z,11.66
2023-01-02T12:53:42.365Z,11.64